sensor_id;sensor_type;location;lat;lon;timestamp;pressure;altitude;pressure_sealevel;temperature;humidity
49945;BME280;35838;49.134;9.212;2023-11-22T00:01:24;100339.13;;;7.31;100.00
49945;BME280;35838;49.134;9.212;2023-11-22T00:02:56;100332.25;;;7.32;100.00
49945;BME280;35838;49.134;9.212;2023-11-22T00:04:30;100337.09;;;7.13;100.00
49945;BME280;35838;49.134;9.212;2023-11-22T00:06:01;100337.81;;;7.04;100.00
49945;BME280;35838;49.134;9.212;2023-11-22T00:07:35;100336.94;;;7.04;100.00
49945;BME280;35838;49.134;9.212;2023-11-22T00:09:06;100335.91;;;6.94;100.00
49945;BME280;35838;49.134;9.212;2023-11-22T00:10:40;100340.34;;;7.03;100.00
49945;BME280;35838;49.134;9.212;2023-11-22T00:12:17;100347.25;;;7.04;100.00
49945;BME280;35838;49.134;9.212;2023-11-22T00:13:48;100347.06;;;6.93;100.00
49945;BME280;35838;49.134;9.212;2023-11-22T00:15:26;100341.13;;;6.97;100.00
49945;BME280;35838;49.134;9.212;2023-11-22T00:16:57;100349.78;;;7.01;100.00
49945;BME280;35838;49.134;9.212;2023-11-22T00:18:32;100348.84;;;6.96;100.00
49945;BME280;35838;49.134;9.212;2023-11-22T00:20:03;100351.31;;;6.89;100.00
49945;BME280;35838;49.134;9.212;2023-11-22T00:21:38;100349.56;;;6.88;100.00
49945;BME280;35838;49.134;9.212;2023-11-22T00:23:09;100357.38;;;6.92;100.00
49945;BME280;35838;49.134;9.212;2023-11-22T00:24:43;100354.06;;;6.99;100.00
49945;BME280;35838;49.134;9.212;2023-11-22T00:26:16;100355.75;;;6.98;100.00
49945;BME280;35838;49.134;9.212;2023-11-22T00:27:53;100362.63;;;6.96;100.00
49945;BME280;35838;49.134;9.212;2023-11-22T00:29:24;100357.34;;;6.90;100.00
49945;BME280;35838;49.134;9.212;2023-11-22T00:30:57;100356.47;;;6.89;100.00
49945;BME280;35838;49.134;9.212;2023-11-22T00:32:28;100359.81;;;6.84;100.00
49945;BME280;35838;49.134;9.212;2023-11-22T00:34:02;100360.81;;;6.92;100.00
49945;BME280;35838;49.134;9.212;2023-11-22T00:35:33;100351.97;;;6.78;100.00
49945;BME280;35838;49.134;9.212;2023-11-22T00:37:07;100359.72;;;6.78;100.00
49945;BME280;35838;49.134;9.212;2023-11-22T00:38:38;100355.41;;;6.78;100.00
49945;BME280;35838;49.134;9.212;2023-11-22T00:40:12;100364.91;;;6.81;100.00
49945;BME280;35838;49.134;9.212;2023-11-22T00:41:43;100365.78;;;6.81;100.00
49945;BME280;35838;49.134;9.212;2023-11-22T00:43:20;100369.31;;;6.86;100.00
49945;BME280;35838;49.134;9.212;2023-11-22T00:44:51;100370.28;;;6.92;100.00
49945;BME280;35838;49.134;9.212;2023-11-22T00:46:24;100368.38;;;6.83;100.00
49945;BME280;35838;49.134;9.212;2023-11-22T00:47:55;100369.38;;;6.89;100.00
49945;BME280;35838;49.134;9.212;2023-11-22T00:49:29;100360.75;;;6.89;100.00
49945;BME280;35838;49.134;9.212;2023-11-22T00:51:00;100361.72;;;6.94;100.00
49945;BME280;35838;49.134;9.212;2023-11-22T00:52:39;100357.47;;;6.96;100.00
49945;BME280;35838;49.134;9.212;2023-11-22T00:54:10;100366.72;;;6.85;100.00
49945;BME280;35838;49.134;9.212;2023-11-22T00:55:43;100371.91;;;6.88;100.00
49945;BME280;35838;49.134;9.212;2023-11-22T00:57:14;100365.81;;;6.84;100.00
49945;BME280;35838;49.134;9.212;2023-11-22T00:58:51;100371.81;;;6.82;100.00
49945;BME280;35838;49.134;9.212;2023-11-22T01:00:23;100375.19;;;6.78;100.00
49945;BME280;35838;49.134;9.212;2023-11-22T01:01:57;100374.25;;;6.74;100.00
49945;BME280;35838;49.134;9.212;2023-11-22T01:03:32;100376.78;;;6.72;100.00
49945;BME280;35838;49.134;9.212;2023-11-22T01:05:05;100379.94;;;6.57;100.00
49945;BME280;35838;49.134;9.212;2023-11-22T01:06:40;100387.75;;;6.61;100.00
49945;BME280;35838;49.134;9.212;2023-11-22T01:08:11;100389.50;;;6.62;100.00
49945;BME280;35838;49.134;9.212;2023-11-22T01:09:45;100388.63;;;6.61;100.00
49945;BME280;35838;49.134;9.212;2023-11-22T01:11:16;100399.72;;;6.57;100.00
49945;BME280;35838;49.134;9.212;2023-11-22T01:12:49;100396.28;;;6.56;100.00
49945;BME280;35838;49.134;9.212;2023-11-22T01:14:23;100392.78;;;6.54;100.00
49945;BME280;35838;49.134;9.212;2023-11-22T01:15:57;100396.38;;;6.63;100.00
49945;BME280;35838;49.134;9.212;2023-11-22T01:17:28;100396.41;;;6.64;100.00
49945;BME280;35838;49.134;9.212;2023-11-22T01:19:01;100400.81;;;6.68;100.00
49945;BME280;35838;49.134;9.212;2023-11-22T01:20:32;100394.81;;;6.71;100.00
49945;BME280;35838;49.134;9.212;2023-11-22T01:22:06;100401.44;;;6.58;100.00
49945;BME280;35838;49.134;9.212;2023-11-22T01:23:37;100404.84;;;6.55;100.00
49945;BME280;35838;49.134;9.212;2023-11-22T01:25:11;100404.84;;;6.55;100.00
49945;BME280;35838;49.134;9.212;2023-11-22T01:26:44;100410.75;;;6.50;100.00
49945;BME280;35838;49.134;9.212;2023-11-22T01:28:15;100410.00;;;6.55;100.00
49945;BME280;35838;49.134;9.212;2023-11-22T01:29:53;100415.19;;;6.58;100.00
49945;BME280;35838;49.134;9.212;2023-11-22T01:31:24;100409.84;;;6.48;100.00
49945;BME280;35838;49.134;9.212;2023-11-22T01:32:58;100408.88;;;6.42;100.00
49945;BME280;35838;49.134;9.212;2023-11-22T01:34:30;100416.75;;;6.49;100.00
49945;BME280;35838;49.134;9.212;2023-11-22T01:36:04;100408.16;;;6.50;100.00
49945;BME280;35838;49.134;9.212;2023-11-22T01:37:35;100417.78;;;6.58;100.00
49945;BME280;35838;49.134;9.212;2023-11-22T01:39:10;100418.56;;;6.54;100.00
49945;BME280;35838;49.134;9.212;2023-11-22T01:40:43;100425.47;;;6.55;100.00
49945;BME280;35838;49.134;9.212;2023-11-22T01:42:17;100421.28;;;6.62;100.00
49945;BME280;35838;49.134;9.212;2023-11-22T01:43:48;100422.22;;;6.66;100.00
49945;BME280;35838;49.134;9.212;2023-11-22T01:45:24;100423.44;;;6.40;100.00
49945;BME280;35838;49.134;9.212;2023-11-22T01:46:55;100429.53;;;6.44;100.00
49945;BME280;35838;49.134;9.212;2023-11-22T01:48:29;100432.31;;;6.53;100.00
49945;BME280;35838;49.134;9.212;2023-11-22T01:50:01;100436.75;;;6.61;100.00
49945;BME280;35838;49.134;9.212;2023-11-22T01:51:35;100439.88;;;6.46;100.00
49945;BME280;35838;49.134;9.212;2023-11-22T01:53:10;100441.63;;;6.47;100.00
49945;BME280;35838;49.134;9.212;2023-11-22T01:54:43;100443.28;;;6.45;100.00
49945;BME280;35838;49.134;9.212;2023-11-22T01:56:16;100449.25;;;6.42;100.00
49945;BME280;35838;49.134;9.212;2023-11-22T01:57:48;100452.00;;;6.50;100.00
49945;BME280;35838;49.134;9.212;2023-11-22T01:59:21;100455.41;;;6.47;100.00
49945;BME280;35838;49.134;9.212;2023-11-22T02:00:55;100452.00;;;6.50;100.00
49945;BME280;35838;49.134;9.212;2023-11-22T02:02:31;100454.50;;;6.45;100.00
49945;BME280;35838;49.134;9.212;2023-11-22T02:04:02;100456.03;;;6.37;100.00
49945;BME280;35838;49.134;9.212;2023-11-22T02:05:39;100458.31;;;6.24;100.00
49945;BME280;35838;49.134;9.212;2023-11-22T02:07:10;100464.25;;;6.20;100.00
49945;BME280;35838;49.134;9.212;2023-11-22T02:08:43;100468.47;;;6.17;100.00
49945;BME280;35838;49.134;9.212;2023-11-22T02:10:14;100466.97;;;6.26;100.00
49945;BME280;35838;49.134;9.212;2023-11-22T02:11:48;100476.44;;;6.27;100.00
49945;BME280;35838;49.134;9.212;2023-11-22T02:13:20;100474.59;;;6.22;100.00
49945;BME280;35838;49.134;9.212;2023-11-22T02:14:53;100470.28;;;6.21;100.00
49945;BME280;35838;49.134;9.212;2023-11-22T02:16:27;100464.06;;;6.13;100.00
49945;BME280;35838;49.134;9.212;2023-11-22T02:18:01;100459.09;;;6.20;100.00
49945;BME280;35838;49.134;9.212;2023-11-22T02:19:32;100453.28;;;6.29;100.00
49945;BME280;35838;49.134;9.212;2023-11-22T02:21:07;100452.53;;;6.35;100.00
49945;BME280;35838;49.134;9.212;2023-11-22T02:22:42;100457.69;;;6.35;100.00
49945;BME280;35838;49.134;9.212;2023-11-22T02:24:19;100457.41;;;6.22;100.00
49945;BME280;35838;49.134;9.212;2023-11-22T02:25:50;100464.38;;;6.25;100.00
49945;BME280;35838;49.134;9.212;2023-11-22T02:27:23;100465.09;;;6.19;100.00
49945;BME280;35838;49.134;9.212;2023-11-22T02:28:54;100467.66;;;6.19;100.00
49945;BME280;35838;49.134;9.212;2023-11-22T02:30:29;100459.16;;;6.23;100.00
49945;BME280;35838;49.134;9.212;2023-11-22T02:32:00;100457.38;;;6.21;100.00
49945;BME280;35838;49.134;9.212;2023-11-22T02:33:35;100470.19;;;6.18;100.00
49945;BME280;35838;49.134;9.212;2023-11-22T02:35:06;100470.88;;;6.09;100.00
49945;BME280;35838;49.134;9.212;2023-11-22T02:36:41;100469.94;;;6.07;100.00
49945;BME280;35838;49.134;9.212;2023-11-22T02:38:13;100467.34;;;6.05;100.00
49945;BME280;35838;49.134;9.212;2023-11-22T02:39:54;100467.84;;;5.92;100.00
49945;BME280;35838;49.134;9.212;2023-11-22T02:41:28;100478.38;;;6.00;100.00
49945;BME280;35838;49.134;9.212;2023-11-22T02:43:03;100474.84;;;5.96;100.00
49945;BME280;35838;49.134;9.212;2023-11-22T02:44:38;100475.00;;;6.02;100.00
49945;BME280;35838;49.134;9.212;2023-11-22T02:46:12;100485.44;;;6.08;100.00
49945;BME280;35838;49.134;9.212;2023-11-22T02:47:43;100485.53;;;6.11;100.00
49945;BME280;35838;49.134;9.212;2023-11-22T08:52:08;100930.22;;;4.48;100.00
49945;BME280;35838;49.134;9.212;2023-11-22T08:53:44;100927.47;;;4.44;100.00
49945;BME280;35838;49.134;9.212;2023-11-22T08:55:15;100924.75;;;4.39;100.00
49945;BME280;35838;49.134;9.212;2023-11-22T08:56:50;100928.75;;;4.32;100.00
49945;BME280;35838;49.134;9.212;2023-11-22T08:58:22;100926.66;;;4.22;100.00
49945;BME280;35838;49.134;9.212;2023-11-22T08:59:56;100916.03;;;4.13;100.00
49945;BME280;35838;49.134;9.212;2023-11-22T09:01:27;100904.50;;;4.26;100.00
49945;BME280;35838;49.134;9.212;2023-11-22T09:03:00;100907.81;;;4.21;100.00
49945;BME280;35838;49.134;9.212;2023-11-22T09:04:31;100907.28;;;4.07;100.00
49945;BME280;35838;49.134;9.212;2023-11-22T09:06:06;100912.66;;;4.14;100.00
49945;BME280;35838;49.134;9.212;2023-11-22T09:07:40;100907.84;;;4.23;100.00
49945;BME280;35838;49.134;9.212;2023-11-22T09:09:15;100903.41;;;4.19;100.00
49945;BME280;35838;49.134;9.212;2023-11-22T09:10:47;100906.22;;;4.25;100.00
49945;BME280;35838;49.134;9.212;2023-11-22T09:12:21;100894.53;;;4.33;100.00
49945;BME280;35838;49.134;9.212;2023-11-22T09:13:52;100891.41;;;4.42;100.00
49945;BME280;35838;49.134;9.212;2023-11-22T09:15:27;100889.63;;;4.39;100.00
49945;BME280;35838;49.134;9.212;2023-11-22T09:17:01;100900.88;;;4.43;100.00
49945;BME280;35838;49.134;9.212;2023-11-22T09:18:36;100904.56;;;4.50;100.00
49945;BME280;35838;49.134;9.212;2023-11-22T09:20:10;100913.56;;;4.38;100.00
49945;BME280;35838;49.134;9.212;2023-11-22T09:21:42;100911.34;;;4.48;100.00
49945;BME280;35838;49.134;9.212;2023-11-22T09:23:18;100911.00;;;4.38;100.00
49945;BME280;35838;49.134;9.212;2023-11-22T09:24:51;100911.63;;;4.55;100.00
49945;BME280;35838;49.134;9.212;2023-11-22T09:26:22;100905.19;;;4.67;100.00
49945;BME280;35838;49.134;9.212;2023-11-22T09:27:56;100900.28;;;4.75;100.00
49945;BME280;35838;49.134;9.212;2023-11-22T09:29:29;100903.19;;;4.84;100.00
49945;BME280;35838;49.134;9.212;2023-11-22T09:31:03;100907.69;;;4.90;100.00
49945;BME280;35838;49.134;9.212;2023-11-22T09:32:36;100915.78;;;4.76;100.00
49945;BME280;35838;49.134;9.212;2023-11-22T09:34:11;100908.56;;;4.66;100.00
49945;BME280;35838;49.134;9.212;2023-11-22T09:35:42;100914.69;;;4.69;100.00
49945;BME280;35838;49.134;9.212;2023-11-22T09:37:16;100925.81;;;4.46;100.00
49945;BME280;35838;49.134;9.212;2023-11-22T09:38:50;100929.47;;;4.51;100.00
49945;BME280;35838;49.134;9.212;2023-11-22T09:40:24;100928.25;;;4.65;100.00
49945;BME280;35838;49.134;9.212;2023-11-22T09:41:55;100931.88;;;4.70;100.00
49945;BME280;35838;49.134;9.212;2023-11-22T09:43:30;100935.38;;;4.73;100.00
49945;BME280;35838;49.134;9.212;2023-11-22T09:45:04;100938.31;;;4.59;100.00
49945;BME280;35838;49.134;9.212;2023-11-22T09:46:35;100943.00;;;4.69;100.00
49945;BME280;35838;49.134;9.212;2023-11-22T09:48:13;100948.41;;;4.77;100.00
49945;BME280;35838;49.134;9.212;2023-11-22T09:49:45;100947.13;;;4.90;100.00
49945;BME280;35838;49.134;9.212;2023-11-22T09:51:22;100942.44;;;4.78;100.00
49945;BME280;35838;49.134;9.212;2023-11-22T09:52:59;100948.19;;;4.71;100.00
49945;BME280;35838;49.134;9.212;2023-11-22T09:54:33;100946.72;;;4.78;100.00
49945;BME280;35838;49.134;9.212;2023-11-22T09:56:08;100959.56;;;4.78;100.00
49945;BME280;35838;49.134;9.212;2023-11-22T09:57:40;100959.25;;;4.68;100.00
49945;BME280;35838;49.134;9.212;2023-11-22T09:59:14;100953.88;;;4.86;100.00
49945;BME280;35838;49.134;9.212;2023-11-22T10:00:48;100953.34;;;4.95;100.00
49945;BME280;35838;49.134;9.212;2023-11-22T10:02:19;100954.75;;;5.11;100.00
49945;BME280;35838;49.134;9.212;2023-11-22T10:03:57;100956.25;;;5.05;100.00
49945;BME280;35838;49.134;9.212;2023-11-22T10:05:29;100958.69;;;5.01;100.00
49945;BME280;35838;49.134;9.212;2023-11-22T10:07:03;100962.16;;;5.02;100.00
49945;BME280;35838;49.134;9.212;2023-11-22T10:08:34;100963.09;;;4.80;100.00
49945;BME280;35838;49.134;9.212;2023-11-22T10:10:11;100963.63;;;4.95;100.00
49945;BME280;35838;49.134;9.212;2023-11-22T10:11:45;100968.16;;;5.02;100.00
49945;BME280;35838;49.134;9.212;2023-11-22T10:13:20;100969.28;;;5.09;100.00
49945;BME280;35838;49.134;9.212;2023-11-22T10:14:52;100969.19;;;5.08;100.00
49945;BME280;35838;49.134;9.212;2023-11-22T10:16:25;100958.50;;;4.95;100.00
49945;BME280;35838;49.134;9.212;2023-11-22T10:17:57;100959.91;;;4.87;100.00
49945;BME280;35838;49.134;9.212;2023-11-22T10:19:31;100952.06;;;4.84;100.00
49945;BME280;35838;49.134;9.212;2023-11-22T10:21:02;100953.00;;;4.86;100.00
49945;BME280;35838;49.134;9.212;2023-11-22T10:22:43;100959.63;;;4.79;100.00
49945;BME280;35838;49.134;9.212;2023-11-22T10:24:15;100963.72;;;4.98;100.00
49945;BME280;35838;49.134;9.212;2023-11-22T10:25:56;100971.06;;;5.12;100.00
49945;BME280;35838;49.134;9.212;2023-11-22T10:27:27;100957.28;;;5.10;100.00
49945;BME280;35838;49.134;9.212;2023-11-22T10:29:01;100961.47;;;5.08;100.00
49945;BME280;35838;49.134;9.212;2023-11-22T10:30:33;100960.13;;;5.17;100.00
49945;BME280;35838;49.134;9.212;2023-11-22T10:32:06;100953.06;;;5.12;100.00
49945;BME280;35838;49.134;9.212;2023-11-22T10:33:39;100946.44;;;4.94;100.00
49945;BME280;35838;49.134;9.212;2023-11-22T10:35:13;100941.75;;;5.07;100.00
49945;BME280;35838;49.134;9.212;2023-11-22T10:36:45;100952.91;;;5.07;100.00
49945;BME280;35838;49.134;9.212;2023-11-22T10:38:20;100948.19;;;5.20;100.00
49945;BME280;35838;49.134;9.212;2023-11-22T10:39:51;100955.84;;;5.18;100.00
49945;BME280;35838;49.134;9.212;2023-11-22T10:41:28;100964.66;;;5.25;100.00
49945;BME280;35838;49.134;9.212;2023-11-22T10:43:00;100962.94;;;5.25;100.00
49945;BME280;35838;49.134;9.212;2023-11-22T10:44:33;100957.06;;;5.28;100.00
49945;BME280;35838;49.134;9.212;2023-11-22T10:46:05;100969.66;;;4.96;100.00
49945;BME280;35838;49.134;9.212;2023-11-22T10:47:40;100968.13;;;4.77;100.00
49945;BME280;35838;49.134;9.212;2023-11-22T10:49:13;100972.78;;;4.64;100.00
49945;BME280;35838;49.134;9.212;2023-11-22T10:50:47;100968.97;;;4.77;100.00
49945;BME280;35838;49.134;9.212;2023-11-22T10:52:18;100978.25;;;4.96;100.00
49945;BME280;35838;49.134;9.212;2023-11-22T10:53:52;100976.19;;;5.10;100.00
49945;BME280;35838;49.134;9.212;2023-11-22T10:55:24;100979.41;;;5.05;100.00
49945;BME280;35838;49.134;9.212;2023-11-22T10:57:02;100983.41;;;4.74;100.00
49945;BME280;35838;49.134;9.212;2023-11-22T10:58:33;100986.94;;;4.76;100.00
49945;BME280;35838;49.134;9.212;2023-11-22T11:00:09;100994.25;;;4.65;100.00
49945;BME280;35838;49.134;9.212;2023-11-22T11:01:44;100989.81;;;4.38;100.00
49945;BME280;35838;49.134;9.212;2023-11-22T11:03:20;100988.38;;;4.45;100.00
49945;BME280;35838;49.134;9.212;2023-11-22T11:04:55;100992.78;;;4.49;100.00
49945;BME280;35838;49.134;9.212;2023-11-22T11:06:31;101002.38;;;4.53;100.00
49945;BME280;35838;49.134;9.212;2023-11-22T11:08:05;101006.81;;;4.57;100.00
49945;BME280;35838;49.134;9.212;2023-11-22T11:09:41;101009.31;;;4.33;100.00
49945;BME280;35838;49.134;9.212;2023-11-22T11:11:16;101008.44;;;4.32;100.00
49945;BME280;35838;49.134;9.212;2023-11-22T11:12:51;101000.72;;;4.32;100.00
49945;BME280;35838;49.134;9.212;2023-11-22T11:14:25;101009.25;;;4.31;100.00
49945;BME280;35838;49.134;9.212;2023-11-22T11:15:57;101005.63;;;4.26;100.00
49945;BME280;35838;49.134;9.212;2023-11-22T11:17:31;101009.38;;;4.34;100.00
49945;BME280;35838;49.134;9.212;2023-11-22T11:19:02;101006.00;;;4.35;100.00
49945;BME280;35838;49.134;9.212;2023-11-22T11:20:44;101005.16;;;4.36;100.00
49945;BME280;35838;49.134;9.212;2023-11-22T11:22:16;101010.78;;;4.49;100.00
49945;BME280;35838;49.134;9.212;2023-11-22T11:23:51;101001.72;;;4.59;100.00
49945;BME280;35838;49.134;9.212;2023-11-22T11:25:23;101001.41;;;4.74;100.00
49945;BME280;35838;49.134;9.212;2023-11-22T11:26:58;101004.47;;;4.86;100.00
49945;BME280;35838;49.134;9.212;2023-11-22T11:28:42;100999.31;;;4.86;100.00
49945;BME280;35838;49.134;9.212;2023-11-22T11:32:30;100996.09;;;4.69;100.00
49945;BME280;35838;49.134;9.212;2023-11-22T11:34:04;101007.84;;;4.85;100.00
49945;BME280;35838;49.134;9.212;2023-11-22T11:35:38;101003.03;;;4.94;100.00
49945;BME280;35838;49.134;9.212;2023-11-22T11:37:10;101002.66;;;5.08;100.00
49945;BME280;35838;49.134;9.212;2023-11-22T11:38:44;101007.16;;;5.13;100.00
49945;BME280;35838;49.134;9.212;2023-11-22T11:40:26;101010.50;;;5.11;100.00
49945;BME280;35838;49.134;9.212;2023-11-22T11:42:08;101009.72;;;5.13;100.00
49945;BME280;35838;49.134;9.212;2023-11-22T11:43:47;101008.25;;;4.96;100.00
49945;BME280;35838;49.134;9.212;2023-11-22T11:45:18;101009.59;;;4.86;100.00
49945;BME280;35838;49.134;9.212;2023-11-22T11:46:53;101016.91;;;4.98;100.00
49945;BME280;35838;49.134;9.212;2023-11-22T11:48:25;101016.28;;;5.05;100.00
49945;BME280;35838;49.134;9.212;2023-11-22T11:49:59;101021.81;;;5.16;100.00
49945;BME280;35838;49.134;9.212;2023-11-22T11:51:30;101014.34;;;5.22;100.00
49945;BME280;35838;49.134;9.212;2023-11-22T11:53:03;101013.72;;;5.29;100.00
49945;BME280;35838;49.134;9.212;2023-11-22T11:54:35;101013.03;;;5.09;100.00
49945;BME280;35838;49.134;9.212;2023-11-22T11:56:09;101021.34;;;5.02;100.00
49945;BME280;35838;49.134;9.212;2023-11-22T11:57:41;101023.84;;;5.00;100.00
49945;BME280;35838;49.134;9.212;2023-11-22T11:59:19;101032.59;;;4.81;100.00
49945;BME280;35838;49.134;9.212;2023-11-22T12:00:54;101032.88;;;4.89;100.00
49945;BME280;35838;49.134;9.212;2023-11-22T12:02:25;101033.91;;;4.94;100.00
49945;BME280;35838;49.134;9.212;2023-11-22T12:04:00;101033.81;;;4.68;100.00
49945;BME280;35838;49.134;9.212;2023-11-22T12:05:34;101025.16;;;4.89;100.00
49945;BME280;35838;49.134;9.212;2023-11-22T12:07:07;101023.75;;;4.97;100.00
49945;BME280;35838;49.134;9.212;2023-11-22T12:08:42;101029.97;;;5.04;100.00
49945;BME280;35838;49.134;9.212;2023-11-22T12:10:17;101039.28;;;5.00;100.00
49945;BME280;35838;49.134;9.212;2023-11-22T12:11:48;101039.38;;;4.79;100.00
49945;BME280;35838;49.134;9.212;2023-11-22T12:13:21;101041.50;;;4.91;100.00
49945;BME280;35838;49.134;9.212;2023-11-22T12:14:55;101046.47;;;5.09;100.00
49945;BME280;35838;49.134;9.212;2023-11-22T12:16:29;101051.19;;;5.21;100.00
49945;BME280;35838;49.134;9.212;2023-11-22T12:18:01;101052.47;;;5.32;100.00
49945;BME280;35838;49.134;9.212;2023-11-22T12:19:34;101050.22;;;5.42;100.00
49945;BME280;35838;49.134;9.212;2023-11-22T12:21:06;101057.50;;;5.29;100.00
49945;BME280;35838;49.134;9.212;2023-11-22T12:22:41;101058.97;;;5.23;100.00
49945;BME280;35838;49.134;9.212;2023-11-22T12:24:12;101056.56;;;5.27;100.00
49945;BME280;35838;49.134;9.212;2023-11-22T12:25:46;101066.03;;;5.28;100.00
49945;BME280;35838;49.134;9.212;2023-11-22T12:27:17;101061.81;;;5.30;100.00
49945;BME280;35838;49.134;9.212;2023-11-22T12:28:50;101070.38;;;5.29;100.00
49945;BME280;35838;49.134;9.212;2023-11-22T12:30:32;101062.06;;;5.38;100.00
49945;BME280;35838;49.134;9.212;2023-11-22T12:32:07;101056.22;;;5.42;100.00
49945;BME280;35838;49.134;9.212;2023-11-22T12:33:39;101045.75;;;5.38;100.00
49945;BME280;35838;49.134;9.212;2023-11-22T12:35:13;101046.75;;;5.41;100.00
49945;BME280;35838;49.134;9.212;2023-11-22T12:36:45;101038.66;;;5.30;100.00
49945;BME280;35838;49.134;9.212;2023-11-22T12:38:19;101039.47;;;5.29;100.00
49945;BME280;35838;49.134;9.212;2023-11-22T12:39:50;101039.75;;;5.13;100.00
49945;BME280;35838;49.134;9.212;2023-11-22T12:41:26;101047.47;;;4.90;100.00
49945;BME280;35838;49.134;9.212;2023-11-22T12:43:00;101047.03;;;4.78;100.00
49945;BME280;35838;49.134;9.212;2023-11-22T12:44:31;101049.88;;;4.85;100.00
49945;BME280;35838;49.134;9.212;2023-11-22T12:46:09;101042.56;;;4.96;100.00
49945;BME280;35838;49.134;9.212;2023-11-22T12:47:44;101049.91;;;5.10;100.00
49945;BME280;35838;49.134;9.212;2023-11-22T12:49:18;101046.69;;;5.15;100.00
49945;BME280;35838;49.134;9.212;2023-11-22T12:50:49;101039.25;;;4.99;100.00
49945;BME280;35838;49.134;9.212;2023-11-22T12:52:26;101037.53;;;4.99;100.00
49945;BME280;35838;49.134;9.212;2023-11-22T12:53:57;101025.59;;;5.01;100.00
49945;BME280;35838;49.134;9.212;2023-11-22T12:55:30;101021.41;;;5.04;100.00
49945;BME280;35838;49.134;9.212;2023-11-22T12:57:02;101018.03;;;5.06;100.00
49945;BME280;35838;49.134;9.212;2023-11-22T12:58:37;101027.41;;;5.04;100.00
49945;BME280;35838;49.134;9.212;2023-11-22T13:00:12;101027.47;;;5.06;100.00
49945;BME280;35838;49.134;9.212;2023-11-22T13:01:46;101025.13;;;5.12;100.00
49945;BME280;35838;49.134;9.212;2023-11-22T13:03:19;101027.84;;;5.16;100.00
49945;BME280;35838;49.134;9.212;2023-11-22T13:04:50;101030.34;;;4.91;100.00
49945;BME280;35838;49.134;9.212;2023-11-22T13:06:24;101038.84;;;4.88;100.00
49945;BME280;35838;49.134;9.212;2023-11-22T13:07:57;101030.63;;;4.98;100.00
49945;BME280;35838;49.134;9.212;2023-11-22T13:09:30;101028.91;;;4.97;100.00
49945;BME280;35838;49.134;9.212;2023-11-22T13:11:03;101027.00;;;4.93;100.00
49945;BME280;35838;49.134;9.212;2023-11-22T13:12:38;101030.53;;;4.95;100.00
49945;BME280;35838;49.134;9.212;2023-11-22T13:14:09;101035.78;;;4.98;100.00
49945;BME280;35838;49.134;9.212;2023-11-22T13:15:44;101041.16;;;4.82;100.00
49945;BME280;35838;49.134;9.212;2023-11-22T13:17:18;101049.00;;;4.85;100.00
49945;BME280;35838;49.134;9.212;2023-11-22T13:18:52;101062.41;;;4.99;100.00
49945;BME280;35838;49.134;9.212;2023-11-22T13:20:23;101066.72;;;5.00;100.00
49945;BME280;35838;49.134;9.212;2023-11-22T13:21:57;101072.03;;;5.05;100.00
49945;BME280;35838;49.134;9.212;2023-11-22T13:23:30;101065.94;;;5.02;100.00
49945;BME280;35838;49.134;9.212;2023-11-22T13:25:01;101060.13;;;5.07;100.00
49945;BME280;35838;49.134;9.212;2023-11-22T13:26:36;101063.84;;;5.15;100.00
49945;BME280;35838;49.134;9.212;2023-11-22T13:28:10;101050.13;;;5.16;100.00
49945;BME280;35838;49.134;9.212;2023-11-22T13:29:42;101050.63;;;5.06;100.00
49945;BME280;35838;49.134;9.212;2023-11-22T13:31:15;101039.56;;;5.08;100.00
49945;BME280;35838;49.134;9.212;2023-11-22T13:32:49;101028.38;;;5.08;100.00
49945;BME280;35838;49.134;9.212;2023-11-22T13:34:23;101019.63;;;5.02;100.00
49945;BME280;35838;49.134;9.212;2023-11-22T13:35:54;101027.78;;;4.91;100.00
49945;BME280;35838;49.134;9.212;2023-11-22T13:37:29;101024.50;;;4.95;100.00
49945;BME280;35838;49.134;9.212;2023-11-22T13:39:00;101015.56;;;4.85;100.00
49945;BME280;35838;49.134;9.212;2023-11-22T13:40:35;101012.78;;;4.79;100.00
49945;BME280;35838;49.134;9.212;2023-11-22T13:42:06;101013.13;;;4.88;100.00
49945;BME280;35838;49.134;9.212;2023-11-22T13:43:40;101020.13;;;4.92;100.00
49945;BME280;35838;49.134;9.212;2023-11-22T13:45:14;101026.25;;;4.96;100.00
49945;BME280;35838;49.134;9.212;2023-11-22T13:46:47;101031.69;;;5.04;100.00
49945;BME280;35838;49.134;9.212;2023-11-22T13:48:23;101036.84;;;5.04;100.00
49945;BME280;35838;49.134;9.212;2023-11-22T13:49:58;101037.66;;;5.02;100.00
49945;BME280;35838;49.134;9.212;2023-11-22T13:51:29;101025.59;;;5.01;100.00
49945;BME280;35838;49.134;9.212;2023-11-22T13:53:03;101018.81;;;5.04;100.00
49945;BME280;35838;49.134;9.212;2023-11-22T13:54:34;101009.94;;;4.95;100.00
49945;BME280;35838;49.134;9.212;2023-11-22T13:56:09;101016.25;;;5.04;100.00
49945;BME280;35838;49.134;9.212;2023-11-22T13:57:40;101013.19;;;5.14;100.00
49945;BME280;35838;49.134;9.212;2023-11-22T13:59:14;101023.63;;;4.94;100.00
49945;BME280;35838;49.134;9.212;2023-11-22T14:00:45;101031.88;;;4.85;100.00
49945;BME280;35838;49.134;9.212;2023-11-22T14:02:20;101025.72;;;4.58;100.00
49945;BME280;35838;49.134;9.212;2023-11-22T14:03:53;101025.22;;;4.68;100.00
49945;BME280;35838;49.134;9.212;2023-11-22T14:05:27;101026.22;;;4.72;100.00
49945;BME280;35838;49.134;9.212;2023-11-22T14:06:58;101030.22;;;4.88;100.00
49945;BME280;35838;49.134;9.212;2023-11-22T14:08:32;101034.56;;;4.89;100.00
49945;BME280;35838;49.134;9.212;2023-11-22T14:10:04;101031.81;;;4.84;100.00
49945;BME280;35838;49.134;9.212;2023-11-22T14:11:37;101031.19;;;4.90;100.00
49945;BME280;35838;49.134;9.212;2023-11-22T14:13:08;101036.19;;;4.86;100.00
49945;BME280;35838;49.134;9.212;2023-11-22T14:14:42;101029.63;;;4.70;100.00